Skip Navigation Links Skip Navigation Links

Current Weather

Alert, Nunavut

For information only: do not use for flight planning or navigation.
Latest weather
Observation time Monday, November 29, 2021 4:00 PM EST
Local time Monday, November 29, 2021 4:53 PM EST
Flight conditions Visual Meteorological Conditions
Winds
Wind speed calm
Visibility 10 mi.
Sky condition
Ceiling unlimited
Sky clear
Temperature -31°F
Dewpoint -40°F
Altimeter 29.85 in.Hg
Derived measurements
Relative humidity 60%
Wind chill -31°F
Density altitude -6553 ft.
Sea-level pressure 29.87 in.Hg
Remarks
Last observation of the day.
METAR CYLT 292100Z 00000KT 10SM SKC M35/M40 A2985 RMK LAST OBS/NEXT 301300 UTC SLP116

Settings

Location code

InnerDrive.Weather 4.0.6770.0 Release CLR 4.0.30319.42000
Copyright ©2018 Inner Drive Technology. All rights reserved. Portions Copyright ©1986-2018 David Braverman.

Find weather

Site navigation


Skip Navigation Links

Place info

Page info

PayPal - The safer, easier way to pay online!

Return home.

Copyright ©2021 Inner Drive Technology. Purveyors of fine, hand-crafted computer software. Page printed 2021-11-29T21:53:15 UTC.